Griffing, Texas
Current Conditions -  °F | °C
As of 8:23 PM on Saturday 22 Nov 2014 (Local Time) from KBPT Reporting Station
Thunderstorm Thunderstorm  
Wind Chill: 65°   Ceiling: 500
Heat Index: 65°   Visibility: 2.5mi
Dew Point: 64°   Wind: 8mph
Humidity: 97%   Direction: 140°SE
Pressure: 29.87"   Gusts: NA
Location:  29.7569°N, 94.1898°W
Report Text: KBPT 230223Z 14007KT 2 1/2SM +TSRA BR OVC005 18/18 A2987 RMK AO2 LTG DSNT SW TSB17 CIG 003V009 P0012 T01830178
Loading
Personal Weather Stations






























Interactive Weather Map New forecast layout! Learn more

10-Day Weather Forecast

Advertisements
Track Severe Weather on mobile